Time;durP1;ratioP1;P1;durP2;ratioP2;P2;SDS_P1;SDS_P2;PMS_P1;PMS_P2;Temp;Humidity;BMP_temperature;BMP_pressure;BME280_temperature;BME280_humidity;BME280_pressure;Samples;Min_cycle;Max_cycle;Signal;HPM_P1;HPM_P2
2019/06/17 12:03:11;;;;;;;9.3;2.4;;;;;;;;;;;;;
2019/06/17 12:05:36;;;;;;;7.3;1.8;;;;;;;;;;;;;
2019/06/17 12:08:01;;;;;;;4.8;2;;;;;;;;;;;;;
2019/06/17 12:13:58;;;;;;;5.5;2.1;;;;;;;28.25;37.63672;1004.942;;;;
2019/06/17 12:58:18;;;;;;;8.4;2.3;;;;;;;26.44;44.49609;1004.583;;;;
2019/06/17 13:03:11;;;;;;;5.9;2.2;;;;;;;29.15;38.70117;1004.572;;;;
2019/06/17 13:06:31;;;;;;;4;1.8;;;;;;;29.14;37.2334;1004.571;;;;
2019/06/17 13:08:56;;;;;;;7.4;2.2;;;;;;;28.82;39.21094;1004.517;;;;
2019/06/17 13:28:41;;;;;;;12.7;2.8;;;;;;;27.26;45.97656;1004.278;;;;
2019/06/17 13:31:05;;;;;;;4.1;2.1;;;;;;;27.71;40.16113;1004.236;;;;
2019/06/17 13:33:35;;;;;;;5;2.3;;;;;;;27.95;39.20801;1004.265;;;;
2019/06/17 13:35:58;;;;;;;4.5;2;;;;;;;28.16;38.39746;1004.219;;;;
2019/06/17 13:38:23;;;;;;;3.9;1.9;;;;;;;28.31;37.89746;1004.174;;;;
2019/06/17 13:38:54;;;;;;;4.7;2;;;;;;;28.32;37.8252;1004.165;;;;
2019/06/17 13:41:19;;;;;;;2.5;1.8;;;;;;;28.44;37.56641;1004.115;;;;
2019/06/17 13:44:39;;;;;;;3.5;1.9;;;;;;;28.56;37.05176;1004.111;;;;
2019/06/17 13:47:05;;;;;;;2.6;1.8;;;;;;;28.59;36.79688;1004.066;;;;
2019/06/17 13:49:30;;;;;;;3.3;2.1;;;;;;;28.64;36.52051;1004.062;;;;
2019/06/17 13:51:55;;;;;;;3.1;2;;;;;;;28.69;36.75684;1004.066;;;;
2019/06/17 13:54:21;;;;;;;3.1;1.9;;;;;;;28.72;36.84473;1004.041;;;;
2019/06/17 13:56:46;;;;;;;4.4;1.8;;;;;;;28.69;37.12402;1004.077;;;;
2019/06/17 13:59:11;;;;;;;4.1;1.9;;;;;;;28.64;37.13086;1004.044;;;;
2019/06/17 14:01:36;;;;;;;5;2;;;;;;;28.65;37.04688;1004.034;;;;
2019/06/17 14:01:43;;;;;;;3.8;2;;;;;;;28.65;37.04688;1004.026;;;;
2019/06/17 14:05:02;;;;;;;2.9;1.9;;;;;;;28.67;36.74316;1004.002;;;;
2019/06/17 14:07:27;;;;;;;3;2.5;;;;;;;28.67;36.74316;1004.015;;;;
2019/06/17 14:07:39;;;;;;;3.2;2.5;;;;;;;28.69;36.78027;1004.03;;;;
2019/06/17 14:10:04;;;;;;;7.1;2.1;;;;;;;28.68;36.75586;1003.995;;;;
2019/06/17 14:12:29;;;;;;;7.2;1.9;;;;;;;28.65;36.81348;1003.971;;;;
2019/06/17 14:14:54;;;;;;;3.5;1.8;;;;;;;28.63;37.39941;1003.951;;;;
2019/06/17 14:17:20;;;;;;;5;1.9;;;;;;;28.56;36.97852;1003.917;;;;
2019/06/17 14:19:48;;;;;;;3;1.9;;;;;;;28.58;37.06543;1003.899;;;;
2019/06/17 14:23:58;;;;;;;3.1;1.7;;;;;;;28.62;37.27539;1003.821;;;;
2019/06/17 14:26:24;;;;;;;3.9;1.9;;;;;;;28.66;37.12012;1003.833;;;;
2019/06/17 14:28:49;;;;;;;3.5;1.8;;;;;;;28.66;37.24219;1003.759;;;;
2019/06/17 14:31:14;;;;;;;3.5;1.9;;;;;;;28.66;37.38867;1003.745;;;;
2019/06/17 14:33:39;;;;;;;2.8;1.8;;;;;;;28.67;37.40234;1003.69;;;;
2019/06/17 14:36:59;;;;;;;3.5;1.8;;;;;;;28.62;37.6416;1003.707;;;;
2019/06/17 14:39:24;;;;;;;5.2;1.9;;;;;;;28.62;37.80176;1003.717;;;;
2019/06/17 14:41:49;;;;;;;5.3;2.1;;;;;;;28.62;37.84961;1003.616;;;;
2019/06/17 14:44:14;;;;;;;4.6;2;;;;;;;28.64;37.72949;1003.602;;;;
2019/06/17 14:46:40;;;;;;;2.4;1.8;;;;;;;28.65;38.02344;1003.615;;;;
2019/06/17 14:49:05;;;;;;;3.9;1.8;;;;;;;28.62;37.67969;1003.63;;;;
2019/06/17 14:49:52;;;;;;;3.7;1.8;;;;;;;28.64;37.50977;1003.634;;;;
2019/06/17 14:52:17;;;;;;;3.7;1.8;;;;;;;28.7;37.25879;1003.593;;;;
2019/06/17 14:54:42;;;;;;;4;1.9;;;;;;;28.68;37.36621;1003.57;;;;
2019/06/17 14:57:07;;;;;;;7.6;2;;;;;;;28.66;37.6582;1003.591;;;;
2019/06/17 14:59:33;;;;;;;3;2;;;;;;;28.63;37.97266;1003.556;;;;
2019/06/17 15:01:58;;;;;;;3.6;1.9;;;;;;;28.6;37.83691;1003.578;;;;
2019/06/17 15:04:23;;;;;;;3.2;2.1;;;;;;;28.63;37.52148;1003.536;;;;
2019/06/17 15:06:49;;;;;;;3.6;1.8;;;;;;;28.69;37.33105;1003.55;;;;
2019/06/17 15:09:14;;;;;;;3.1;1.9;;;;;;;28.73;37.28516;1003.481;;;;
2019/06/17 15:11:39;;;;;;;3.5;2;;;;;;;28.76;37.16602;1003.442;;;;
2019/06/17 15:14:04;;;;;;;3.2;1.9;;;;;;;28.73;37.44336;1003.364;;;;
2019/06/17 15:16:30;;;;;;;4.1;1.9;;;;;;;28.73;37.50586;1003.325;;;;
2019/06/17 15:18:55;;;;;;;3.4;1.8;;;;;;;28.67;37.63379;1003.347;;;;
2019/06/17 15:21:20;;;;;;;3.8;1.8;;;;;;;28.63;37.31348;1003.357;;;;
2019/06/17 15:23:46;;;;;;;4.5;1.8;;;;;;;28.63;37.08203;1003.292;;;;
2019/06/17 15:26:11;;;;;;;3.7;2;;;;;;;28.64;37.22852;1003.253;;;;
2019/06/17 15:28:37;;;;;;;3.9;1.7;;;;;;;28.66;37.52441;1003.243;;;;
